Terminal Aerodrome Forecast
Issued by NWS

Home | Current Version | Previous Version | Text Only | Print | Product List | Glossary On
Versions: 1 2 3 4 5 6 7 8 9 10 11 12 13 14 15 16 17 18 19 20 21 22 23 24 25
109
FTUS41 KBUF 170324 AAA
TAFJHW
TAF AMD
KJHW 170324Z 1703/1724 08004KT P6SM VCSH OVC035
     FM170800 14007KT 6SM -RA OVC015
     FM171000 14008KT 4SM -RA OVC007
     FM171200 15010KT 4SM -RA OVC003
     FM171700 18012KT 4SM -RA OVC003
     FM172100 21007KT 4SM -RA OVC003
      AMD LTD TO CLD VIS AND WIND=

USA.gov is the U.S. government's official web portal to all federal, state and local government web resources and services.